createdAt,value
2022-08-17T06:37:53.177Z,97205.44
2022-08-17T06:40:47.822Z,97208.56
2022-08-17T06:43:45.073Z,97217.06
2022-08-17T06:46:27.437Z,97209.59
2022-08-17T06:49:12.842Z,97204.66
2022-08-17T06:51:46.451Z,97211.88
2022-08-17T06:54:28.214Z,97207.09
2022-08-17T06:57:09.990Z,97219.28
2022-08-17T06:59:55.116Z,97216.06
2022-08-17T07:02:52.317Z,97220.09
2022-08-17T07:06:21.945Z,97215.91
2022-08-17T07:09:26.560Z,97212.81
2022-08-17T07:12:24.656Z,97218.50
2022-08-17T07:15:12.369Z,97216.47
2022-08-17T07:18:16.644Z,97225.59
2022-08-17T07:25:20.778Z,97223.34
2022-08-17T07:28:17.786Z,97224.38
2022-08-17T07:31:43.059Z,97219.84
2022-08-17T07:34:16.874Z,97215.78
2022-08-17T07:37:06.477Z,97229.47
2022-08-17T07:40:16.347Z,97225.44
2022-08-17T07:43:32.957Z,97226.47
2022-08-17T07:47:04.021Z,97227.59
2022-08-17T07:49:41.042Z,97233.81
2022-08-17T07:52:50.464Z,97231.44
2022-08-17T07:55:32.749Z,97236.03
2022-08-17T07:58:19.432Z,97238.06
2022-08-17T08:01:07.997Z,97234.91
2022-08-17T08:03:52.650Z,97243.19
2022-08-17T08:06:26.351Z,97245.41
2022-08-17T08:08:57.175Z,97249.22
2022-08-17T08:11:41.274Z,97249.75
2022-08-17T08:14:31.154Z,97252.63
2022-08-17T08:17:02.493Z,97241.41
2022-08-17T08:19:33.514Z,97241.84
2022-08-17T08:22:11.298Z,97247.00
2022-08-17T08:25:08.323Z,97239.78
2022-08-17T08:27:51.284Z,97246.75
2022-08-17T08:30:23.499Z,97243.38
2022-08-17T08:33:30.954Z,97241.09
2022-08-17T08:36:56.938Z,97235.94
2022-08-17T08:39:21.559Z,97236.16
2022-08-17T08:42:07.914Z,97236.44
2022-08-17T08:45:01.373Z,97241.69
2022-08-17T08:48:06.830Z,97244.56
2022-08-17T08:51:03.716Z,97250.69
2022-08-17T08:53:47.748Z,97248.63
2022-08-17T08:56:59.188Z,97245.81
2022-08-17T08:59:44.611Z,97247.56
2022-08-17T09:02:43.033Z,97247.13
2022-08-17T09:05:33.861Z,97241.50
2022-08-17T09:08:17.885Z,97246.03
2022-08-17T09:11:05.568Z,97242.97
2022-08-17T09:13:54.393Z,97234.47
2022-08-17T09:16:33.181Z,97232.50
2022-08-17T09:19:12.654Z,97231.00
2022-08-17T09:21:52.582Z,97230.47
2022-08-17T09:24:32.670Z,97225.13
2022-08-17T09:27:09.624Z,97231.81
2022-08-17T09:29:45.650Z,97227.31
2022-08-17T09:32:23.218Z,97220.75
2022-08-17T09:34:56.050Z,97215.59
2022-08-17T09:37:36.595Z,97218.72
2022-08-17T09:40:17.515Z,97214.00
2022-08-17T09:42:53.393Z,97208.97
2022-08-17T09:45:32.349Z,97209.47
2022-08-17T09:48:09.357Z,97200.56
2022-08-17T09:51:03.771Z,97203.69
2022-08-17T09:53:39.623Z,97193.44
2022-08-17T09:56:34.947Z,97188.63
2022-08-17T09:59:38.641Z,97190.25
2022-08-17T10:02:42.305Z,97189.00
2022-08-17T10:05:27.495Z,97175.56
2022-08-17T10:08:21.817Z,97177.13
2022-08-17T10:11:20.442Z,97183.50
2022-08-17T10:15:37.914Z,97176.75
2022-08-17T10:18:50.352Z,97185.56
2022-08-17T10:22:14.732Z,97184.28
2022-08-17T10:25:48.748Z,97164.16
2022-08-17T10:28:29.595Z,97168.81
2022-08-17T10:31:33.081Z,97162.44
2022-08-17T10:34:18.697Z,97165.44
2022-08-17T10:37:00.670Z,97162.59
2022-08-17T10:39:51.816Z,97169.00
2022-08-17T10:42:32.239Z,97178.16
2022-08-17T10:45:08.465Z,97171.13
2022-08-17T10:48:05.738Z,97172.41
2022-08-17T10:50:58.635Z,97172.25
2022-08-17T10:53:55.884Z,97169.03
2022-08-17T10:56:41.302Z,97170.25
2022-08-17T10:59:10.283Z,97163.75
2022-08-17T11:02:13.986Z,97154.09
2022-08-17T11:05:07.948Z,97150.38
2022-08-17T11:08:05.455Z,97155.88
2022-08-17T11:11:07.873Z,97157.56
2022-08-17T11:13:49.818Z,97147.53
2022-08-17T11:16:45.610Z,97149.09
2022-08-17T11:19:59.577Z,97134.75
2022-08-17T11:23:06.011Z,97134.88
2022-08-17T11:25:39.760Z,97132.81
2022-08-17T11:28:18.124Z,97131.19
2022-08-17T11:30:51.976Z,97125.81
2022-08-17T11:34:00.075Z,97119.28
2022-08-17T11:37:11.270Z,97124.84
2022-08-17T11:40:26.873Z,97127.59
2022-08-17T11:43:58.653Z,97126.88
2022-08-17T11:47:09.733Z,97129.72
2022-08-17T11:50:25.703Z,97133.66
2022-08-17T11:52:57.745Z,97133.88
2022-08-17T11:56:08.039Z,97147.34
2022-08-17T11:58:41.479Z,97150.63
2022-08-17T12:01:13.834Z,97150.75
2022-08-17T12:03:54.242Z,97146.88
2022-08-17T12:06:59.818Z,97155.16
2022-08-17T12:09:39.827Z,97152.41
2022-08-17T12:12:19.291Z,97157.03
2022-08-17T12:15:10.037Z,97150.00
2022-08-17T12:17:43.971Z,97138.78
2022-08-17T12:20:32.124Z,97135.41
2022-08-17T12:23:31.857Z,97122.63
2022-08-17T12:26:19.688Z,97127.09
2022-08-17T12:28:58.276Z,97130.31
2022-08-17T12:31:44.623Z,97131.50
2022-08-17T12:34:26.639Z,97117.22
2022-08-17T12:37:05.957Z,97116.16
2022-08-17T12:39:34.789Z,97118.13
2022-08-17T12:42:05.380Z,97116.81
2022-08-17T12:44:46.170Z,97124.59
2022-08-17T12:47:22.715Z,97127.41
2022-08-17T12:49:54.117Z,97124.56
2022-08-17T12:52:26.740Z,97116.03
2022-08-17T12:55:00.709Z,97116.44
2022-08-17T12:57:35.473Z,97114.09
2022-08-17T13:00:15.748Z,97122.50
2022-08-17T13:02:49.638Z,97117.88
2022-08-17T13:05:27.564Z,97124.38
2022-08-17T13:07:59.581Z,97112.16
2022-08-17T13:10:33.281Z,97119.78
2022-08-17T13:13:06.046Z,97100.25
2022-08-17T13:15:44.963Z,97102.22
2022-08-17T13:18:39.822Z,97112.38
2022-08-17T13:21:18.096Z,97102.56
2022-08-17T13:24:00.969Z,97103.19
2022-08-17T13:26:35.152Z,97093.69
2022-08-17T13:29:09.324Z,97092.28
2022-08-17T13:31:51.873Z,97094.47
2022-08-17T13:34:42.365Z,97091.88
2022-08-17T13:37:30.163Z,97095.97
2022-08-17T13:40:04.411Z,97096.13
2022-08-17T13:42:53.003Z,97096.81
2022-08-17T13:45:53.289Z,97097.28
2022-08-17T13:48:28.387Z,97093.59
2022-08-17T13:51:43.286Z,97091.50
2022-08-17T13:54:30.541Z,97097.09
2022-08-17T13:57:03.630Z,97087.50
2022-08-17T13:59:53.643Z,97078.34
2022-08-17T14:02:28.520Z,97086.03
2022-08-17T14:05:00.558Z,97075.28
2022-08-17T14:07:36.391Z,97068.34
2022-08-17T14:10:14.168Z,97078.19
2022-08-17T14:12:50.148Z,97064.78
2022-08-17T14:15:22.463Z,97058.94
2022-08-17T14:17:53.663Z,97075.63
2022-08-17T14:20:24.587Z,97071.75
2022-08-17T14:22:56.662Z,97059.84
2022-08-17T14:25:29.353Z,97067.31
2022-08-17T14:27:58.238Z,97053.41
2022-08-17T14:30:30.124Z,97059.09
2022-08-17T14:33:02.122Z,97067.34
2022-08-17T14:35:31.382Z,97059.88
2022-08-17T14:37:59.994Z,97059.38
2022-08-17T14:40:29.443Z,97055.50
2022-08-17T14:42:59.246Z,97050.38
2022-08-17T14:45:32.816Z,97054.97
2022-08-17T14:48:05.657Z,97044.91
2022-08-17T14:50:36.139Z,97045.41
2022-08-17T14:53:06.698Z,97045.19
2022-08-17T14:55:36.775Z,97039.59
2022-08-17T14:58:05.413Z,97037.41
2022-08-17T15:00:34.450Z,97027.13
2022-08-17T15:03:04.479Z,97021.13
2022-08-17T15:05:38.133Z,97023.88
2022-08-17T15:08:08.138Z,97021.38
2022-08-17T15:10:37.507Z,97022.00
2022-08-17T15:13:11.488Z,97018.25
2022-08-17T15:15:40.939Z,97019.06
2022-08-17T15:18:10.809Z,97022.28
2022-08-17T15:20:39.708Z,97012.06
2022-08-17T15:23:09.616Z,97015.25
2022-08-17T15:25:38.031Z,97003.97
2022-08-17T15:28:07.369Z,97005.78
2022-08-17T15:30:36.334Z,97004.31
2022-08-17T15:33:05.542Z,97003.63
2022-08-17T15:35:35.992Z,96998.50
2022-08-17T15:38:12.149Z,96996.94
2022-08-17T15:40:44.645Z,97011.25
2022-08-17T15:43:17.467Z,97008.66
2022-08-17T15:45:59.863Z,97009.03
2022-08-17T15:48:41.303Z,97003.44
2022-08-17T15:51:14.754Z,97009.56
2022-08-17T15:53:46.457Z,97018.59
2022-08-17T15:56:16.346Z,97019.38
2022-08-17T15:58:47.633Z,97014.53
2022-08-17T16:02:16.308Z,97011.84
2022-08-17T16:04:26.704Z,97014.56
2022-08-17T16:06:58.910Z,97019.44
2022-08-17T16:09:27.615Z,97022.47
2022-08-17T16:11:56.533Z,97024.44
2022-08-17T16:14:32.401Z,97016.47
2022-08-17T16:17:04.622Z,97028.59
2022-08-17T16:19:34.325Z,97028.53
2022-08-17T16:22:06.651Z,97023.19
2022-08-17T16:24:37.532Z,97025.31
2022-08-17T16:27:12.631Z,97022.50
2022-08-17T16:29:42.387Z,97028.31
2022-08-17T16:32:31.455Z,97028.72
2022-08-17T16:35:04.194Z,97024.13
2022-08-17T16:37:35.039Z,97017.28
2022-08-17T16:40:06.815Z,97023.91
2022-08-17T16:42:39.490Z,97017.38
2022-08-17T16:45:13.030Z,97017.09
2022-08-17T16:47:42.410Z,97019.44
2022-08-17T16:50:20.476Z,97022.75
2022-08-17T16:52:51.617Z,97023.88
2022-08-17T16:55:22.919Z,97011.53
2022-08-17T16:57:51.369Z,97016.31
2022-08-17T17:00:20.925Z,97013.53
2022-08-17T17:02:50.768Z,97016.47
2022-08-17T17:05:42.305Z,97016.84
2022-08-17T17:08:21.296Z,97013.78
2022-08-17T17:10:52.614Z,97011.94
2022-08-17T17:13:32.214Z,97019.56
2022-08-17T17:16:18.204Z,97019.16
2022-08-17T17:19:04.572Z,97019.94
2022-08-17T17:21:44.696Z,97017.88
2022-08-17T17:24:26.070Z,97023.72
2022-08-17T17:27:21.875Z,97014.94
2022-08-17T17:30:07.525Z,97017.13
2022-08-17T17:32:42.447Z,97013.59
2022-08-17T17:35:20.393Z,97013.34
2022-08-17T17:37:51.157Z,97010.13
2022-08-17T17:40:26.159Z,97001.44
2022-08-17T17:43:14.369Z,96999.91
2022-08-17T17:45:56.996Z,97008.34
2022-08-17T17:48:29.233Z,97008.09
2022-08-17T17:51:11.857Z,97006.59
2022-08-17T17:54:02.186Z,97011.88
2022-08-17T17:56:44.031Z,97002.25
2022-08-17T17:59:24.590Z,97007.38
2022-08-17T18:02:05.490Z,97009.56
2022-08-17T18:04:48.331Z,97013.19
2022-08-17T18:07:30.260Z,97008.94
2022-08-17T18:10:29.815Z,97014.19
2022-08-17T18:13:13.017Z,97011.84
2022-08-17T18:15:51.336Z,97009.03
2022-08-17T18:18:38.581Z,97009.81
2022-08-17T18:21:16.777Z,97004.84
2022-08-17T18:23:56.112Z,97006.56
2022-08-17T18:26:42.050Z,97008.41
2022-08-17T18:29:32.167Z,97003.13
2022-08-17T18:32:43.710Z,97004.56
2022-08-17T18:35:32.558Z,97010.41
2022-08-17T18:38:29.581Z,97009.22
2022-08-17T18:41:06.918Z,97002.41
2022-08-17T18:43:52.993Z,97008.69
2022-08-17T18:46:33.167Z,97001.53
2022-08-17T18:49:07.462Z,97001.75
2022-08-17T18:51:41.905Z,97005.53
2022-08-17T18:54:23.086Z,97003.22
2022-08-17T18:56:57.970Z,97005.09
2022-08-17T18:59:40.794Z,96999.41
2022-08-17T19:02:44.111Z,97004.06
2022-08-17T19:05:28.679Z,97003.56
2022-08-17T19:08:22.446Z,96995.06
2022-08-17T19:10:56.631Z,97008.44
2022-08-17T19:13:33.023Z,97005.75
2022-08-17T19:16:14.643Z,97001.09
2022-08-17T19:18:52.995Z,96998.63
2022-08-17T19:21:27.818Z,97003.38
2022-08-17T19:24:09.596Z,96998.19
2022-08-17T19:26:54.393Z,97000.09
2022-08-17T19:29:42.620Z,96996.69
2022-08-17T19:32:15.653Z,96995.91
2022-08-17T19:34:46.129Z,97002.84
2022-08-17T19:37:31.427Z,97009.38
2022-08-17T19:40:29.269Z,97005.22
2022-08-17T19:43:14.863Z,97012.63
2022-08-17T19:46:03.970Z,97006.09
2022-08-17T19:48:50.192Z,97004.47
2022-08-17T19:51:36.200Z,97004.72
2022-08-17T19:54:15.009Z,97004.63
2022-08-17T19:56:56.506Z,97003.13
2022-08-17T19:59:51.165Z,97002.16
2022-08-17T20:02:36.314Z,97010.22
2022-08-17T20:05:11.366Z,97019.09
2022-08-17T20:07:52.523Z,97030.59
2022-08-17T20:10:36.399Z,97039.81
2022-08-17T20:13:11.011Z,97046.31
2022-08-17T20:15:43.433Z,97033.50
2022-08-17T20:18:23.693Z,97048.94
2022-08-17T20:21:01.651Z,97034.91
2022-08-17T20:23:50.476Z,97042.44
2022-08-17T20:26:27.264Z,97037.69
2022-08-17T20:29:39.551Z,97040.69
2022-08-17T20:32:25.151Z,97038.13
2022-08-17T20:35:09.489Z,97040.56
2022-08-17T20:37:44.118Z,97047.13
2022-08-17T20:40:25.927Z,97048.00
2022-08-17T20:42:55.141Z,97047.88
2022-08-17T20:46:13.541Z,97050.81
2022-08-17T20:48:47.344Z,97058.22
2022-08-17T20:51:32.470Z,97061.09
2022-08-17T20:54:34.795Z,97053.09
2022-08-17T20:57:06.789Z,97052.78
2022-08-17T21:00:14.401Z,97052.25
2022-08-17T21:02:45.402Z,97055.41
2022-08-17T21:06:00.073Z,97055.34
2022-08-17T21:08:34.394Z,97048.13
2022-08-17T21:12:02.968Z,97055.47
2022-08-17T21:14:58.630Z,97056.97
2022-08-17T21:17:44.451Z,97054.97
2022-08-17T21:20:33.027Z,97064.84
2022-08-17T21:23:25.171Z,97048.31
2022-08-17T21:26:30.815Z,97046.03
2022-08-17T21:29:29.738Z,97041.56
2022-08-17T21:32:24.349Z,97037.47
2022-08-17T21:35:31.036Z,97030.25
2022-08-17T21:38:04.944Z,97025.94
2022-08-17T21:40:35.377Z,97024.41
2022-08-17T21:43:23.577Z,97020.28
2022-08-17T21:46:25.033Z,97018.13
2022-08-17T21:49:03.026Z,97020.59
2022-08-17T21:51:45.315Z,97021.00
2022-08-17T21:54:33.904Z,97005.03
2022-08-17T21:57:05.567Z,97012.69
2022-08-17T21:59:38.263Z,97014.69
2022-08-17T22:02:10.428Z,97017.28
2022-08-17T22:04:43.134Z,97021.13
2022-08-17T22:07:14.944Z,97022.53
2022-08-17T22:09:46.715Z,97021.75
2022-08-17T22:12:20.736Z,97019.13
2022-08-17T22:15:00.373Z,97009.31
2022-08-17T22:17:35.857Z,97014.50
2022-08-17T22:20:14.410Z,97018.38
2022-08-17T22:23:30.624Z,97014.97
2022-08-17T22:26:06.090Z,97013.81
2022-08-17T22:28:43.868Z,97011.38
2022-08-17T22:31:14.938Z,97013.50
2022-08-17T22:33:48.103Z,97008.91
2022-08-17T22:36:30.433Z,97012.25
2022-08-17T22:39:03.224Z,97014.56
2022-08-17T22:41:44.497Z,97012.63
2022-08-17T22:44:27.691Z,97020.78
2022-08-17T22:47:11.250Z,97015.06
2022-08-17T22:49:54.222Z,97025.69
2022-08-17T22:52:58.288Z,97017.41
2022-08-17T22:55:59.372Z,97017.84
2022-08-17T22:58:59.280Z,97022.22
2022-08-17T23:01:31.547Z,97022.72
2022-08-17T23:04:03.355Z,97017.38
2022-08-17T23:06:33.872Z,97022.47
2022-08-17T23:09:06.724Z,97017.34
2022-08-17T23:11:49.920Z,97023.34
2022-08-17T23:14:21.417Z,97016.56
2022-08-17T23:16:51.168Z,97018.38
2022-08-17T23:19:22.582Z,97023.25
2022-08-17T23:21:52.612Z,97029.69
2022-08-17T23:24:26.742Z,97033.69
2022-08-17T23:26:58.139Z,97032.41
2022-08-17T23:29:29.343Z,97034.25
2022-08-17T23:32:01.277Z,97040.88
2022-08-17T23:34:30.138Z,97041.59
2022-08-17T23:37:02.112Z,97037.97
2022-08-17T23:39:32.681Z,97035.69
2022-08-17T23:42:07.876Z,97037.97
2022-08-17T23:44:37.551Z,97042.38
2022-08-17T23:47:07.792Z,97047.31
2022-08-17T23:49:37.492Z,97053.28
2022-08-17T23:52:09.958Z,97065.84
2022-08-17T23:54:44.491Z,97074.09
2022-08-17T23:57:16.473Z,97067.91
2022-08-17T23:59:45.518Z,97083.41
